sensor_id;sensor_type;location;lat;lon;timestamp;P1;durP1;ratioP1;P2;durP2;ratioP2
77701;SDS011;66868;42.708;23.404;2023-08-12T00:01:23;4.38;;;4.00;;
77701;SDS011;66868;42.708;23.404;2023-08-12T00:03:50;6.40;;;4.57;;
77701;SDS011;66868;42.708;23.404;2023-08-12T00:06:15;4.82;;;4.43;;
77701;SDS011;66868;42.708;23.404;2023-08-12T00:08:41;5.22;;;4.78;;
77701;SDS011;66868;42.708;23.404;2023-08-12T00:11:06;5.00;;;4.60;;
77701;SDS011;66868;42.708;23.404;2023-08-12T00:13:31;6.00;;;4.32;;
77701;SDS011;66868;42.708;23.404;2023-08-12T00:15:57;5.03;;;4.50;;
77701;SDS011;66868;42.708;23.404;2023-08-12T00:18:22;5.85;;;4.78;;
77701;SDS011;66868;42.708;23.404;2023-08-12T00:20:48;4.60;;;4.20;;
77701;SDS011;66868;42.708;23.404;2023-08-12T00:23:13;4.43;;;4.13;;
77701;SDS011;66868;42.708;23.404;2023-08-12T00:25:39;4.35;;;4.15;;
77701;SDS011;66868;42.708;23.404;2023-08-12T00:28:04;4.20;;;3.90;;
77701;SDS011;66868;42.708;23.404;2023-08-12T00:30:30;4.25;;;3.95;;
77701;SDS011;66868;42.708;23.404;2023-08-12T00:32:55;4.05;;;3.80;;
77701;SDS011;66868;42.708;23.404;2023-08-12T00:35:20;4.65;;;4.35;;
77701;SDS011;66868;42.708;23.404;2023-08-12T00:37:46;4.00;;;3.67;;
77701;SDS011;66868;42.708;23.404;2023-08-12T00:40:12;5.55;;;3.67;;
77701;SDS011;66868;42.708;23.404;2023-08-12T00:42:38;5.78;;;3.83;;
77701;SDS011;66868;42.708;23.404;2023-08-12T00:45:06;3.53;;;3.33;;
77701;SDS011;66868;42.708;23.404;2023-08-12T00:47:34;4.75;;;4.43;;
77701;SDS011;66868;42.708;23.404;2023-08-12T00:50:00;5.47;;;3.33;;
77701;SDS011;66868;42.708;23.404;2023-08-12T00:52:25;3.90;;;3.70;;
77701;SDS011;66868;42.708;23.404;2023-08-12T00:54:51;3.92;;;3.72;;
77701;SDS011;66868;42.708;23.404;2023-08-12T00:57:17;4.85;;;3.83;;
77701;SDS011;66868;42.708;23.404;2023-08-12T00:59:43;3.50;;;3.40;;
77701;SDS011;66868;42.708;23.404;2023-08-12T01:02:09;3.75;;;3.47;;
77701;SDS011;66868;42.708;23.404;2023-08-12T01:04:35;3.58;;;3.38;;
77701;SDS011;66868;42.708;23.404;2023-08-12T01:07:00;3.70;;;3.50;;
77701;SDS011;66868;42.708;23.404;2023-08-12T01:09:26;3.50;;;3.40;;
77701;SDS011;66868;42.708;23.404;2023-08-12T01:11:57;3.65;;;3.45;;
77701;SDS011;66868;42.708;23.404;2023-08-12T01:14:35;4.80;;;3.42;;
77701;SDS011;66868;42.708;23.404;2023-08-12T01:17:20;3.95;;;3.20;;
77701;SDS011;66868;42.708;23.404;2023-08-12T01:19:46;3.17;;;3.05;;
77701;SDS011;66868;42.708;23.404;2023-08-12T01:22:12;2.90;;;2.75;;
77701;SDS011;66868;42.708;23.404;2023-08-12T01:24:38;3.20;;;3.10;;
77701;SDS011;66868;42.708;23.404;2023-08-12T01:27:05;3.17;;;2.97;;
77701;SDS011;66868;42.708;23.404;2023-08-12T01:29:35;3.53;;;3.33;;
77701;SDS011;66868;42.708;23.404;2023-08-12T01:32:08;3.88;;;3.17;;
77701;SDS011;66868;42.708;23.404;2023-08-12T01:35:07;3.40;;;3.20;;
77701;SDS011;66868;42.708;23.404;2023-08-12T01:37:34;3.47;;;3.38;;
77701;SDS011;66868;42.708;23.404;2023-08-12T01:40:02;3.92;;;3.53;;
77701;SDS011;66868;42.708;23.404;2023-08-12T01:42:33;3.95;;;3.60;;
77701;SDS011;66868;42.708;23.404;2023-08-12T01:44:59;3.50;;;3.20;;
77701;SDS011;66868;42.708;23.404;2023-08-12T01:47:26;3.90;;;3.60;;
77701;SDS011;66868;42.708;23.404;2023-08-12T01:49:52;4.38;;;3.58;;
77701;SDS011;66868;42.708;23.404;2023-08-12T01:52:17;4.80;;;3.65;;
77701;SDS011;66868;42.708;23.404;2023-08-12T01:54:43;4.07;;;3.75;;
77701;SDS011;66868;42.708;23.404;2023-08-12T01:57:08;3.50;;;3.30;;
77701;SDS011;66868;42.708;23.404;2023-08-12T01:59:36;3.50;;;3.30;;
77701;SDS011;66868;42.708;23.404;2023-08-12T02:02:03;3.33;;;3.22;;
77701;SDS011;66868;42.708;23.404;2023-08-12T02:04:29;4.80;;;3.38;;
77701;SDS011;66868;42.708;23.404;2023-08-12T02:06:55;3.45;;;3.25;;
77701;SDS011;66868;42.708;23.404;2023-08-12T02:09:20;3.70;;;3.50;;
77701;SDS011;66868;42.708;23.404;2023-08-12T02:11:47;3.83;;;3.53;;
77701;SDS011;66868;42.708;23.404;2023-08-12T02:14:12;3.83;;;3.63;;
77701;SDS011;66868;42.708;23.404;2023-08-12T02:16:38;3.42;;;3.33;;
77701;SDS011;66868;42.708;23.404;2023-08-12T02:19:03;4.60;;;4.20;;
77701;SDS011;66868;42.708;23.404;2023-08-12T02:21:29;3.45;;;3.30;;
77701;SDS011;66868;42.708;23.404;2023-08-12T02:23:54;3.60;;;3.40;;
77701;SDS011;66868;42.708;23.404;2023-08-12T02:26:20;4.20;;;4.00;;
77701;SDS011;66868;42.708;23.404;2023-08-12T02:28:45;4.35;;;4.15;;
77701;SDS011;66868;42.708;23.404;2023-08-12T02:31:10;3.78;;;3.58;;
77701;SDS011;66868;42.708;23.404;2023-08-12T02:33:36;3.83;;;3.67;;
77701;SDS011;66868;42.708;23.404;2023-08-12T02:36:01;4.00;;;3.80;;
77701;SDS011;66868;42.708;23.404;2023-08-12T02:38:27;4.43;;;3.95;;
77701;SDS011;66868;42.708;23.404;2023-08-12T02:40:52;3.80;;;3.40;;
77701;SDS011;66868;42.708;23.404;2023-08-12T02:43:18;5.60;;;3.90;;
77701;SDS011;66868;42.708;23.404;2023-08-12T02:45:43;3.97;;;3.67;;
